logo tempoitalia

Diretta Meteo Olbia-Costa Smeralda, Italiavenerdì 18 giugno ore 18:50

Mappa
Sereno 27 °C Sereno 24 Ore: T.min 18 T.max 31
Ponente Est Km/h 20.3 Punto di rugiada: 20 °C Umidità: 65% Visibilità: 10 Km
Il sole sorge alle: 05:48 Il sole tramonta alle: 20:58
18 Giugno 2021 18:50 tempo osservato: Sereno Sereno 27 65 1015 vento: Nord E 20.3
18 Giugno 2021 18:20 tempo osservato: Sereno Sereno 28 58 1015 vento: Nord E 20.3
18 Giugno 2021 17:50 tempo osservato: Sereno Sereno 28 58 1015 vento: Nord E 22.2
18 Giugno 2021 17:20 tempo osservato: Sereno Sereno 29 54 1015 vento: Nord E 20.3
18 Giugno 2021 16:50 tempo osservato: Sereno Sereno 29 54 1015 vento: Nord E 22.2
18 Giugno 2021 16:20 tempo osservato: Sereno Sereno 30 51 1015 vento: Nord E 20.3
18 Giugno 2021 15:50 tempo osservato: Sereno Sereno 30 51 1015 vento: Nord E 20.3
18 Giugno 2021 15:20 tempo osservato: Sereno Sereno 30 51 1015 vento: Nord E 24
18 Giugno 2021 14:50 tempo osservato: Sereno Sereno 29 54 1015 vento: Nord E 25.9
18 Giugno 2021 14:20 tempo osservato: Sereno Sereno 30 48 1015 vento: Nord E 24
18 Giugno 2021 13:50 tempo osservato: Sereno Sereno 31 45 1015 vento: Nord E 20.3
18 Giugno 2021 13:20 tempo osservato: Sereno Sereno 30 48 1015 vento: Nord E 24
18 Giugno 2021 12:50 tempo osservato: Poco Nuvoloso Poco Nuvoloso 31 43 1015 vento: Nord E 18.5
18 Giugno 2021 12:20 tempo osservato: Sereno Sereno 30 45 1015 vento: Nord E 22.2
18 Giugno 2021 11:50 tempo osservato: Nuvoloso Nuvoloso 30 48 1015 vento: Nord E 22.2
18 Giugno 2021 11:20 tempo osservato: Nuvoloso Nuvoloso 30 42 1015 vento: Nord E/SE 13
18 Giugno 2021 10:50 tempo osservato: Nuvoloso Nuvoloso 29 45 1015 vento: Nord E/SE 14.8
18 Giugno 2021 10:20 tempo osservato: Poco Nuvoloso Poco Nuvoloso 28 51 1015 vento: Nord N 7.4
18 Giugno 2021 09:50 tempo osservato: Sereno Sereno 27 54 1015 vento: Nord N/NO 7.4
18 Giugno 2021 09:20 tempo osservato: Sereno Sereno 26 61 1016 vento: Nord N 3.7
18 Giugno 2021 08:50 tempo osservato: Sereno Sereno 24 73 1016 vento: Nord N 1.8
18 Giugno 2021 08:20 tempo osservato: Sereno Sereno 23 78 1016 vento: Nord N 1.8
18 Giugno 2021 07:50 tempo osservato: Sereno Sereno 21 88 1016 vento: Nord N 1.8
18 Giugno 2021 07:20 tempo osservato: Sereno Sereno 20 88 1016 vento: Nord SO 7.4
18 Giugno 2021 06:50 tempo osservato: Sereno Sereno 19 88 1016 vento: Nord N 1.8
18 Giugno 2021 06:20 tempo osservato: Sereno Sereno 18 93 1016 vento: Nord N 3.7
18 Giugno 2021 05:50 tempo osservato: Sereno Sereno 18 93 1016 vento: Nord N 3.7
18 Giugno 2021 05:20 tempo osservato: Sereno Sereno 18 93 1016 vento: Nord N 3.7
18 Giugno 2021 04:20 tempo osservato: Sereno Sereno 19 93 1015 vento: Nord O/SO 7.4
18 Giugno 2021 03:50 tempo osservato: Sereno Sereno 20 88 1015 vento: Nord N 3.7
18 Giugno 2021 02:50 tempo osservato: Sereno Sereno 20 88 1016 vento: Nord O/SO 9.3
18 Giugno 2021 02:20 tempo osservato: Sereno Sereno 21 82 1016 vento: Nord E 7.4
18 Giugno 2021 01:50 tempo osservato: Sereno Sereno 22 88 1016 vento: Nord N 5.5
18 Giugno 2021 01:20 tempo osservato: Sereno Sereno 23 78 1016 vento: Nord O/SO 7.4
18 Giugno 2021 00:50 tempo osservato: Sereno Sereno 23 73 1015 vento: Nord N 5.5
18 Giugno 2021 00:20 tempo osservato: Sereno Sereno 24 69 1016 vento: Nord N 3.7
17 Giugno 2021 23:50 tempo osservato: Sereno Sereno 24 64 1015 vento: Nord N 3.7
17 Giugno 2021 23:20 tempo osservato: Sereno Sereno 24 64 1015 vento: Nord N 5.5
17 Giugno 2021 22:50 tempo osservato: Sereno Sereno 25 57 1015 vento: Nord SE 9.3
17 Giugno 2021 22:20 tempo osservato: Sereno Sereno 25 53 1015 vento: Nord E/SE 9.3
17 Giugno 2021 21:50 tempo osservato: Sereno Sereno 25 57 1015 vento: Nord E/SE 11.1
17 Giugno 2021 21:20 tempo osservato: Sereno Sereno 26 50 1015 vento: Nord E 9.3
17 Giugno 2021 20:50 tempo osservato: Sereno Sereno 26 54 1014 vento: Nord E 14.8
17 Giugno 2021 20:20 tempo osservato: Sereno Sereno 27 50 1014 vento: Nord E 13
17 Giugno 2021 19:50 tempo osservato: Sereno Sereno 28 45 1014 vento: Nord E/SE 16.7